• Join FlightAware (Why Join?)
  • Login
  • US Flag 
10:59AM EDT


 

Airport Tracker/Info


-or-


 

Live Flight TrackerFlight Track Log ✈ SWA1287 ✈ 05-Jul-2014 ✈ KDAL - KMCI

Flight Track Log - Related Links

Times and Time Zones

All times are in EDT time to prevent confusion due to time zone crossing. See the SWA1287 flight status page for this flight to view local times or setup timezone preferences in your user account.

Time Position Orientation Groundspeed Altitude Reporting Facility
EDT Latitude Longitude Course Direction KTS MPH feet Rate Location/Type
01:27PM 32.8333 -96.8333 107° East 154 177 1,500  Level Dallas / Fort Worth TRACON
01:28PM 32.8167 -96.7667 107° East 218 251 4,000 2,100 Climbing Dallas / Fort Worth TRACON
01:29PM 32.8439 -96.7475 31° Northeast 223 257 5,400 2,640 Climbing Fort Worth Center
01:31PM 32.9911 -96.8106 340° North 290 334 10,900 2,460 Climbing Fort Worth Center
01:32PM 33.0794 -96.8681 331° Northwest 351 404 13,100 2,520 Climbing Fort Worth Center
01:33PM 33.1700 -96.9264 332° Northwest 367 422 16,200 2,700 Climbing Fort Worth Center
01:34PM 33.2639 -96.9889 331° Northwest 383 441 18,700 2,580 Climbing Fort Worth Center
01:35PM 33.3661 -97.0533 332° Northwest 398 458 21,600 2,460 Climbing Fort Worth Center
01:36PM 33.4675 -97.1050 337° Northwest 411 473 23,900 2,160 Climbing Fort Worth Center
01:37PM 33.5842 -97.0922 North 422 486 26,100 2,040 Climbing Fort Worth Center
01:38PM 33.7025 -97.0761 North 423 487 28,100 2,100 Climbing Fort Worth Center
01:39PM 33.8450 -97.0381 13° North 432 497 30,500 2,040 Climbing Fort Worth Center
01:40PM 33.9617 -96.9947 17° North 435 501 32,400 1,680 Climbing Fort Worth Center
01:41PM 34.0789 -96.9528 17° North 439 505 34,000 1,680 Climbing Fort Worth Center
01:42PM 34.2061 -96.9028 18° North 444 511 35,900 1,440 Climbing Fort Worth Center
01:43PM 34.3214 -96.8597 17° North 436 502 37,000 480 Climbing Fort Worth Center
01:44PM 34.4358 -96.8178 17° North 432 497 37,000 480 Level Fort Worth Center
01:45PM 34.5492 -96.7764 17° North 431 496 38,100 960 Climbing Fort Worth Center
01:46PM 34.6600 -96.7342 17° North 424 488 39,000 420 Climbing Fort Worth Center
01:47PM 34.7931 -96.6853 17° North 419 482 39,000  Level Fort Worth Center
01:48PM 34.9064 -96.6436 17° North 421 484 39,000  Level Fort Worth Center
01:49PM 35.0197 -96.6025 17° North 428 493 39,000  Level Fort Worth Center
01:50PM 35.1331 -96.5600 17° North 425 489 39,000  Level Fort Worth Center
01:51PM 35.2472 -96.5178 17° North 430 495 39,000  Level Fort Worth Center
01:52PM 35.3614 -96.4750 17° North 431 496 39,000  Level Fort Worth Center
01:53PM 35.4989 -96.4233 17° North 431 496 39,000  Level Fort Worth Center
01:54PM 35.6131 -96.3794 17° North 431 496 39,000  Level Fort Worth Center
01:55PM 35.7281 -96.3378 16° North 431 496 39,000  Level Fort Worth Center
01:57PM 35.8433 -96.2936 17° North 432 497 39,000  Level Fort Worth Center
01:58PM 35.9586 -96.2500 17° North 432 497 39,000  Level Fort Worth Center
01:59PM 36.0744 -96.2033 18° North 432 497 39,000  Level Kansas City Center
02:00PM 36.1911 -96.1581 17° North 432 497 39,000  Level Kansas City Center
02:01PM 36.3075 -96.1147 17° North 433 498 39,000  Level Kansas City Center
02:02PM 36.4242 -96.0692 17° North 433 498 39,000  Level Kansas City Center
02:03PM 36.5419 -96.0225 18° North 434 499 39,000  Level Kansas City Center
02:04PM 36.6844 -95.9675 17° North 438 504 39,000  Level Kansas City Center
02:05PM 36.8036 -95.9208 17° North 441 507 39,000  Level Kansas City Center
02:06PM 36.9219 -95.8736 18° North 441 507 39,000  Level Kansas City Center
02:07PM 37.0450 -95.8403 12° North 448 516 39,000 -420 Level Kansas City Center
02:08PM 37.1667 -95.8131 10° North 449 517 38,200 -840 Descending Kansas City Center
02:09PM 37.2911 -95.7825 11° North 449 517 37,300 -960 Descending Kansas City Center
02:10PM 37.4161 -95.7531 11° North 449 517 36,300 -720 Descending Kansas City Center
02:11PM 37.5397 -95.7239 11° North 450 518 35,900 -1,020 Descending Kansas City Center
02:12PM 37.6878 -95.6889 11° North 450 518 34,300 -1,920 Descending Kansas City Center
02:13PM 37.8097 -95.6597 11° North 448 516 32,000 -2,160 Descending Kansas City Center
02:14PM 37.9281 -95.6306 11° North 437 503 29,900 -1,980 Descending Kansas City Center
02:15PM 38.0361 -95.6075 10° North 434 499 27,900 -2,280 Descending Kansas City Center
02:16PM 38.1492 -95.5797 11° North 417 480 25,400 -2,580 Descending Kansas City Center
02:17PM 38.2831 -95.5481 11° North 411 473 22,600 -2,520 Descending Kansas City Center
02:18PM 38.3942 -95.5214 11° North 408 470 20,200 -2,340 Descending Kansas City Center
02:19PM 38.5022 -95.4950 11° North 400 460 17,900 -2,280 Descending Kansas City Center
02:20PM 38.6072 -95.4689 11° North 388 447 15,700 -2,160 Descending Kansas City Center
02:21PM 38.7106 -95.4444 10° North 380 437 13,600 -1,860 Descending Kansas City Center
02:22PM 38.8072 -95.4153 13° North 360 414 11,900 -840 Descending Kansas City Center
02:23PM 38.8844 -95.3094 47° Northeast 339 390 11,900  Level Kansas City Center
02:24PM 38.9542 -95.2364 39° Northeast 330 380 11,900 -600 Level Kansas City Center
02:25PM 39.0322 -95.1767 31° Northeast 329 379 10,700 -1,200 Descending Kansas City Center
02:26PM 39.1022 -95.1153 34° Northeast 314 361 9,500 -1,260 Descending Kansas City Center
02:27PM 39.1689 -95.0508 37° Northeast 309 356 8,200 -1,980 Descending Kansas City Center
02:28PM 39.2494 -94.9900 30° Northeast 289 333 5,500 -2,160 Descending Kansas City Center
02:29PM 39.3203 -94.9653 15° North 275 316 3,800 -1,260 Descending Kansas City Center
02:30PM 39.3097 -94.8961 101° East 198 228 3,000 -480 Descending Kansas City Center
02:32PM 39.3008 -94.8436 102° East 155 178 2,800 -480 Descending Kansas City Center
02:33PM 39.2961 -94.7925 97° East 149 171 2,100 -720 Descending Kansas City Center
02:34PM 39.2925 -94.7483 96° East 127 146 1,400 -540 Descending Kansas City Center
02:35PM 39.2881 -94.6964 96° East 127 146 1,000 -420 Descending Kansas City Center